sensor_id;sensor_type;location;lat;lon;timestamp;pressure;altitude;pressure_sealevel;temperature;humidity
74631;BME280;63138;55.082;38.804;2023-02-28T00:01:32;100386.00;;;-7.63;78.61
74631;BME280;63138;55.082;38.804;2023-02-28T00:03:59;100375.41;;;-7.61;78.96
74631;BME280;63138;55.082;38.804;2023-02-28T00:06:24;100377.16;;;-7.62;79.03
74631;BME280;63138;55.082;38.804;2023-02-28T00:08:51;100378.16;;;-7.66;79.19
74631;BME280;63138;55.082;38.804;2023-02-28T00:11:17;100372.13;;;-7.70;78.90
74631;BME280;63138;55.082;38.804;2023-02-28T00:13:45;100373.97;;;-7.72;79.31
74631;BME280;63138;55.082;38.804;2023-02-28T00:16:19;100364.66;;;-7.83;79.63
74631;BME280;63138;55.082;38.804;2023-02-28T00:18:46;100376.88;;;-7.79;79.56
74631;BME280;63138;55.082;38.804;2023-02-28T00:21:13;100369.09;;;-7.84;79.66
74631;BME280;63138;55.082;38.804;2023-02-28T00:23:39;100364.78;;;-7.86;79.74
74631;BME280;63138;55.082;38.804;2023-02-28T00:26:05;100363.13;;;-7.91;80.01
74631;BME280;63138;55.082;38.804;2023-02-28T00:28:31;100364.13;;;-7.93;79.64
74631;BME280;63138;55.082;38.804;2023-02-28T00:30:58;100374.75;;;-7.96;79.99
74631;BME280;63138;55.082;38.804;2023-02-28T00:33:26;100360.84;;;-8.01;80.70
74631;BME280;63138;55.082;38.804;2023-02-28T00:36:07;100374.03;;;-8.01;80.38
74631;BME280;63138;55.082;38.804;2023-02-28T00:38:36;100364.50;;;-8.05;80.21
74631;BME280;63138;55.082;38.804;2023-02-28T00:41:02;100352.34;;;-8.10;80.54
74631;BME280;63138;55.082;38.804;2023-02-28T00:43:35;100356.00;;;-8.14;80.43
74631;BME280;63138;55.082;38.804;2023-02-28T00:46:02;100339.53;;;-8.22;80.26
74631;BME280;63138;55.082;38.804;2023-02-28T00:48:29;100358.75;;;-8.18;80.37
74631;BME280;63138;55.082;38.804;2023-02-28T00:50:55;100364.13;;;-8.21;80.75
74631;BME280;63138;55.082;38.804;2023-02-28T00:53:21;100359.72;;;-8.21;81.10
74631;BME280;63138;55.082;38.804;2023-02-28T00:55:49;100350.22;;;-8.27;81.32
74631;BME280;63138;55.082;38.804;2023-02-28T00:58:15;100331.84;;;-8.28;81.37
74631;BME280;63138;55.082;38.804;2023-02-28T01:00:42;100323.25;;;-8.35;81.39
74631;BME280;63138;55.082;38.804;2023-02-28T01:03:08;100325.81;;;-8.32;81.33
74631;BME280;63138;55.082;38.804;2023-02-28T01:05:34;100340.66;;;-8.29;82.04
74631;BME280;63138;55.082;38.804;2023-02-28T01:08:01;100330.09;;;-8.29;81.97
74631;BME280;63138;55.082;38.804;2023-02-28T01:10:27;100327.53;;;-8.31;81.80
74631;BME280;63138;55.082;38.804;2023-02-28T01:12:56;100314.59;;;-8.38;81.60
74631;BME280;63138;55.082;38.804;2023-02-28T01:15:22;100324.84;;;-8.29;81.70
74631;BME280;63138;55.082;38.804;2023-02-28T01:17:48;100317.03;;;-8.32;81.79
74631;BME280;63138;55.082;38.804;2023-02-28T01:20:14;100322.13;;;-8.26;81.70
74631;BME280;63138;55.082;38.804;2023-02-28T01:22:40;100322.94;;;-8.24;81.85
74631;BME280;63138;55.082;38.804;2023-02-28T01:25:07;100322.88;;;-8.22;81.91
74631;BME280;63138;55.082;38.804;2023-02-28T01:27:33;100317.44;;;-8.18;81.80
74631;BME280;63138;55.082;38.804;2023-02-28T01:29:59;100306.59;;;-8.09;81.50
74631;BME280;63138;55.082;38.804;2023-02-28T01:32:25;100316.13;;;-8.03;81.28
74631;BME280;63138;55.082;38.804;2023-02-28T01:34:51;100315.09;;;-7.99;81.26
74631;BME280;63138;55.082;38.804;2023-02-28T01:37:16;100311.47;;;-7.96;80.85
74631;BME280;63138;55.082;38.804;2023-02-28T01:39:43;100295.78;;;-7.99;80.79
74631;BME280;63138;55.082;38.804;2023-02-28T01:42:09;100300.84;;;-7.93;80.59
74631;BME280;63138;55.082;38.804;2023-02-28T01:44:55;100298.13;;;-7.90;80.87
74631;BME280;63138;55.082;38.804;2023-02-28T01:47:27;100291.00;;;-7.88;81.04
74631;BME280;63138;55.082;38.804;2023-02-28T01:49:57;100271.69;;;-7.89;80.68
74631;BME280;63138;55.082;38.804;2023-02-28T01:52:24;100272.34;;;-7.82;80.31
74631;BME280;63138;55.082;38.804;2023-02-28T01:54:55;100275.72;;;-7.78;80.35
74631;BME280;63138;55.082;38.804;2023-02-28T01:57:26;100279.97;;;-7.74;80.14
74631;BME280;63138;55.082;38.804;2023-02-28T01:59:58;100284.19;;;-7.69;79.53
74631;BME280;63138;55.082;38.804;2023-02-28T02:02:25;100281.38;;;-7.64;78.96
74631;BME280;63138;55.082;38.804;2023-02-28T02:05:04;100276.97;;;-7.63;78.60
74631;BME280;63138;55.082;38.804;2023-02-28T02:07:33;100242.81;;;-7.66;78.70
74631;BME280;63138;55.082;38.804;2023-02-28T02:10:13;100258.44;;;-7.62;78.37
74631;BME280;63138;55.082;38.804;2023-02-28T02:27:33;100238.47;;;-7.69;78.29
74631;BME280;63138;55.082;38.804;2023-02-28T02:38:08;100221.28;;;-7.79;78.35
74631;BME280;63138;55.082;38.804;2023-02-28T02:43:29;100228.34;;;-7.81;78.57
74631;BME280;63138;55.082;38.804;2023-02-28T02:46:01;100210.97;;;-7.87;78.12
74631;BME280;63138;55.082;38.804;2023-02-28T02:48:31;100204.00;;;-7.88;78.53
74631;BME280;63138;55.082;38.804;2023-02-28T02:51:03;100205.78;;;-7.89;78.44
74631;BME280;63138;55.082;38.804;2023-02-28T02:53:37;100175.56;;;-8.05;78.36
74631;BME280;63138;55.082;38.804;2023-02-28T02:56:07;100190.22;;;-7.96;77.80
74631;BME280;63138;55.082;38.804;2023-02-28T02:58:37;100193.56;;;-7.91;78.25
74631;BME280;63138;55.082;38.804;2023-02-28T03:01:14;100185.88;;;-7.97;77.95
74631;BME280;63138;55.082;38.804;2023-02-28T03:03:42;100183.94;;;-7.92;78.02
74631;BME280;63138;55.082;38.804;2023-02-28T03:06:10;100187.47;;;-7.93;77.86
74631;BME280;63138;55.082;38.804;2023-02-28T03:08:37;100183.09;;;-7.94;77.42
74631;BME280;63138;55.082;38.804;2023-02-28T03:11:06;100180.69;;;-8.00;77.82
74631;BME280;63138;55.082;38.804;2023-02-28T03:22:03;100148.28;;;-8.02;77.67
74631;BME280;63138;55.082;38.804;2023-02-28T03:24:39;100136.97;;;-8.06;77.57
74631;BME280;63138;55.082;38.804;2023-02-28T03:27:30;100146.53;;;-8.03;77.54
74631;BME280;63138;55.082;38.804;2023-02-28T03:30:06;100144.84;;;-8.04;77.70
74631;BME280;63138;55.082;38.804;2023-02-28T03:33:11;100114.38;;;-8.13;77.95
74631;BME280;63138;55.082;38.804;2023-02-28T03:35:45;100131.69;;;-8.06;77.52
74631;BME280;63138;55.082;38.804;2023-02-28T03:41:05;100117.81;;;-8.11;77.49
74631;BME280;63138;55.082;38.804;2023-02-28T03:43:35;100113.53;;;-8.14;77.97
74631;BME280;63138;55.082;38.804;2023-02-28T03:46:06;100096.09;;;-8.18;77.83
74631;BME280;63138;55.082;38.804;2023-02-28T03:48:51;100104.78;;;-8.16;77.79
74631;BME280;63138;55.082;38.804;2023-02-28T03:51:21;100099.66;;;-8.19;77.88
74631;BME280;63138;55.082;38.804;2023-02-28T03:54:13;100081.41;;;-8.25;77.57
74631;BME280;63138;55.082;38.804;2023-02-28T03:57:20;100090.81;;;-8.18;77.57
74631;BME280;63138;55.082;38.804;2023-02-28T04:00:24;100069.41;;;-8.34;77.60
74631;BME280;63138;55.082;38.804;2023-02-28T04:02:48;100069.03;;;-8.23;78.11
74631;BME280;63138;55.082;38.804;2023-02-28T04:05:22;100073.69;;;-8.30;77.84
74631;BME280;63138;55.082;38.804;2023-02-28T04:07:48;100064.03;;;-8.31;77.94
74631;BME280;63138;55.082;38.804;2023-02-28T04:10:15;100080.59;;;-8.27;77.72
74631;BME280;63138;55.082;38.804;2023-02-28T04:12:41;100071.91;;;-8.29;78.16
74631;BME280;63138;55.082;38.804;2023-02-28T04:15:07;100069.38;;;-8.32;77.69
74631;BME280;63138;55.082;38.804;2023-02-28T04:17:33;100071.25;;;-8.36;77.84
74631;BME280;63138;55.082;38.804;2023-02-28T04:19:59;100065.97;;;-8.36;78.17
74631;BME280;63138;55.082;38.804;2023-02-28T04:22:25;100065.19;;;-8.38;77.85
74631;BME280;63138;55.082;38.804;2023-02-28T04:24:51;100066.97;;;-8.38;78.24
74631;BME280;63138;55.082;38.804;2023-02-28T04:27:21;100060.97;;;-8.42;78.03
74631;BME280;63138;55.082;38.804;2023-02-28T04:29:47;100039.94;;;-8.43;77.91
74631;BME280;63138;55.082;38.804;2023-02-28T04:32:13;100017.81;;;-8.39;78.02
74631;BME280;63138;55.082;38.804;2023-02-28T04:34:57;100042.41;;;-8.39;77.82
74631;BME280;63138;55.082;38.804;2023-02-28T04:37:24;100042.41;;;-8.39;77.59
74631;BME280;63138;55.082;38.804;2023-02-28T04:40:37;100043.25;;;-8.38;78.03
74631;BME280;63138;55.082;38.804;2023-02-28T04:43:03;100023.09;;;-8.39;78.00
74631;BME280;63138;55.082;38.804;2023-02-28T04:45:29;100032.78;;;-8.40;77.84
74631;BME280;63138;55.082;38.804;2023-02-28T04:47:57;100020.44;;;-8.39;77.55
74631;BME280;63138;55.082;38.804;2023-02-28T04:50:23;100009.09;;;-8.41;77.78
74631;BME280;63138;55.082;38.804;2023-02-28T04:52:49;100019.31;;;-8.32;77.77
74631;BME280;63138;55.082;38.804;2023-02-28T04:55:15;100021.00;;;-8.30;77.76
74631;BME280;63138;55.082;38.804;2023-02-28T04:57:41;100002.56;;;-8.30;77.70
74631;BME280;63138;55.082;38.804;2023-02-28T05:00:10;99996.41;;;-8.30;77.68
74631;BME280;63138;55.082;38.804;2023-02-28T05:02:37;100001.41;;;-8.22;77.42
74631;BME280;63138;55.082;38.804;2023-02-28T05:05:04;99983.72;;;-8.19;77.40
74631;BME280;63138;55.082;38.804;2023-02-28T05:07:30;99993.22;;;-8.15;76.28
74631;BME280;63138;55.082;38.804;2023-02-28T05:09:56;99985.16;;;-8.10;76.95
74631;BME280;63138;55.082;38.804;2023-02-28T05:12:22;99993.66;;;-8.03;76.24
74631;BME280;63138;55.082;38.804;2023-02-28T05:14:48;99988.16;;;-7.97;75.79
74631;BME280;63138;55.082;38.804;2023-02-28T05:17:13;99987.06;;;-7.92;75.50
74631;BME280;63138;55.082;38.804;2023-02-28T05:19:39;99991.31;;;-7.88;75.50
74631;BME280;63138;55.082;38.804;2023-02-28T05:22:13;99972.69;;;-7.83;75.49
74631;BME280;63138;55.082;38.804;2023-02-28T05:24:40;99979.44;;;-7.76;75.14
74631;BME280;63138;55.082;38.804;2023-02-28T05:27:07;99976.72;;;-7.74;74.42
74631;BME280;63138;55.082;38.804;2023-02-28T05:29:33;99972.78;;;-7.64;74.28
74631;BME280;63138;55.082;38.804;2023-02-28T05:31:59;99973.59;;;-7.62;73.89
74631;BME280;63138;55.082;38.804;2023-02-28T05:34:25;99960.22;;;-7.57;73.87
74631;BME280;63138;55.082;38.804;2023-02-28T05:36:52;99935.38;;;-7.52;73.06
74631;BME280;63138;55.082;38.804;2023-02-28T05:39:18;99941.34;;;-7.46;73.04
74631;BME280;63138;55.082;38.804;2023-02-28T05:41:44;99936.72;;;-7.41;72.71
74631;BME280;63138;55.082;38.804;2023-02-28T05:44:10;99931.13;;;-7.34;72.63
74631;BME280;63138;55.082;38.804;2023-02-28T05:46:56;99941.19;;;-7.21;72.13
74631;BME280;63138;55.082;38.804;2023-02-28T05:49:22;99934.50;;;-7.09;72.21
74631;BME280;63138;55.082;38.804;2023-02-28T05:51:48;99931.34;;;-6.97;71.29
74631;BME280;63138;55.082;38.804;2023-02-28T05:54:14;99907.22;;;-6.69;70.43
74631;BME280;63138;55.082;38.804;2023-02-28T05:56:40;99912.09;;;-5.30;66.76
74631;BME280;63138;55.082;38.804;2023-02-28T05:59:10;99894.75;;;-4.34;62.83
74631;BME280;63138;55.082;38.804;2023-02-28T06:01:39;99910.94;;;-3.59;60.26
74631;BME280;63138;55.082;38.804;2023-02-28T06:04:08;99900.69;;;-3.04;57.13
74631;BME280;63138;55.082;38.804;2023-02-28T06:06:52;99898.19;;;-2.34;54.64
74631;BME280;63138;55.082;38.804;2023-02-28T06:09:18;99891.78;;;-1.88;53.35
74631;BME280;63138;55.082;38.804;2023-02-28T06:11:44;99881.31;;;-1.37;51.00
74631;BME280;63138;55.082;38.804;2023-02-28T06:14:20;99863.47;;;-1.22;49.28
74631;BME280;63138;55.082;38.804;2023-02-28T06:16:46;99867.34;;;-0.49;47.66
74631;BME280;63138;55.082;38.804;2023-02-28T06:19:12;99846.72;;;-0.22;46.19
74631;BME280;63138;55.082;38.804;2023-02-28T06:21:38;99853.19;;;-0.13;45.15
74631;BME280;63138;55.082;38.804;2023-02-28T06:24:05;99854.22;;;0.59;43.70
74631;BME280;63138;55.082;38.804;2023-02-28T06:26:31;99845.50;;;1.14;42.64
74631;BME280;63138;55.082;38.804;2023-02-28T06:28:57;99839.28;;;0.56;42.22
74631;BME280;63138;55.082;38.804;2023-02-28T06:31:23;99850.75;;;0.21;43.24
74631;BME280;63138;55.082;38.804;2023-02-28T06:33:51;99841.25;;;-0.07;42.73
74631;BME280;63138;55.082;38.804;2023-02-28T06:36:17;99816.09;;;-0.42;43.91
74631;BME280;63138;55.082;38.804;2023-02-28T06:38:44;99801.47;;;0.25;42.45
74631;BME280;63138;55.082;38.804;2023-02-28T06:41:10;99794.63;;;0.81;41.20
74631;BME280;63138;55.082;38.804;2023-02-28T06:43:38;99795.53;;;1.04;39.85
74631;BME280;63138;55.082;38.804;2023-02-28T06:46:07;99763.44;;;0.46;40.80
74631;BME280;63138;55.082;38.804;2023-02-28T06:48:34;99756.16;;;1.28;39.87
74631;BME280;63138;55.082;38.804;2023-02-28T06:51:09;99744.22;;;0.99;39.57
74631;BME280;63138;55.082;38.804;2023-02-28T06:53:36;99726.84;;;0.93;40.10
74631;BME280;63138;55.082;38.804;2023-02-28T06:56:06;99736.56;;;0.94;40.12
74631;BME280;63138;55.082;38.804;2023-02-28T06:58:33;99749.84;;;1.41;39.51
74631;BME280;63138;55.082;38.804;2023-02-28T07:00:59;99724.53;;;1.11;39.45
74631;BME280;63138;55.082;38.804;2023-02-28T07:03:25;99727.41;;;1.53;38.74
74631;BME280;63138;55.082;38.804;2023-02-28T07:05:51;99715.63;;;1.56;38.50
74631;BME280;63138;55.082;38.804;2023-02-28T07:08:18;99740.97;;;2.27;38.08
74631;BME280;63138;55.082;38.804;2023-02-28T07:10:44;99729.13;;;2.09;37.16
74631;BME280;63138;55.082;38.804;2023-02-28T07:13:10;99719.13;;;2.00;37.73
74631;BME280;63138;55.082;38.804;2023-02-28T07:15:38;99717.09;;;1.92;37.04
74631;BME280;63138;55.082;38.804;2023-02-28T07:18:04;99713.63;;;2.13;37.13
74631;BME280;63138;55.082;38.804;2023-02-28T07:20:32;99698.38;;;2.97;36.15
74631;BME280;63138;55.082;38.804;2023-02-28T07:22:58;99706.91;;;2.39;35.44
74631;BME280;63138;55.082;38.804;2023-02-28T07:25:28;99686.25;;;2.51;35.87
74631;BME280;63138;55.082;38.804;2023-02-28T07:27:55;99693.78;;;2.57;35.68
74631;BME280;63138;55.082;38.804;2023-02-28T07:30:21;99660.38;;;1.98;36.01
74631;BME280;63138;55.082;38.804;2023-02-28T07:32:47;99674.81;;;2.28;36.30
74631;BME280;63138;55.082;38.804;2023-02-28T07:35:13;99673.25;;;1.72;36.13
74631;BME280;63138;55.082;38.804;2023-02-28T07:37:41;99650.97;;;2.04;35.99
74631;BME280;63138;55.082;38.804;2023-02-28T07:40:09;99629.28;;;2.28;36.06
74631;BME280;63138;55.082;38.804;2023-02-28T07:42:38;99617.47;;;2.31;35.70
74631;BME280;63138;55.082;38.804;2023-02-28T18:18:12;98911.34;;;-1.76;84.97
74631;BME280;63138;55.082;38.804;2023-02-28T18:20:38;98917.41;;;-1.74;84.33
74631;BME280;63138;55.082;38.804;2023-02-28T18:23:07;98914.84;;;-1.76;84.53
74631;BME280;63138;55.082;38.804;2023-02-28T18:25:33;98911.97;;;-1.73;84.27
74631;BME280;63138;55.082;38.804;2023-02-28T18:27:59;98890.06;;;-1.76;84.36
74631;BME280;63138;55.082;38.804;2023-02-28T18:30:32;98903.56;;;-1.68;84.48
74631;BME280;63138;55.082;38.804;2023-02-28T18:33:01;98900.31;;;-1.71;84.63
74631;BME280;63138;55.082;38.804;2023-02-28T18:35:29;98902.13;;;-1.72;84.63
74631;BME280;63138;55.082;38.804;2023-02-28T18:38:19;98916.66;;;-1.65;84.82
74631;BME280;63138;55.082;38.804;2023-02-28T18:40:54;98907.22;;;-1.69;84.93
74631;BME280;63138;55.082;38.804;2023-02-28T18:43:39;98913.38;;;-1.68;85.05
74631;BME280;63138;55.082;38.804;2023-02-28T18:46:07;98894.31;;;-1.85;85.10
74631;BME280;63138;55.082;38.804;2023-02-28T18:48:34;98918.59;;;-1.67;85.00
74631;BME280;63138;55.082;38.804;2023-02-28T18:51:06;98914.22;;;-1.68;84.72
74631;BME280;63138;55.082;38.804;2023-02-28T18:53:37;98907.81;;;-1.77;85.02
74631;BME280;63138;55.082;38.804;2023-02-28T18:56:04;98917.59;;;-1.66;84.85
74631;BME280;63138;55.082;38.804;2023-02-28T18:58:32;98911.44;;;-1.66;84.84
74631;BME280;63138;55.082;38.804;2023-02-28T19:00:59;98920.28;;;-1.66;85.42
74631;BME280;63138;55.082;38.804;2023-02-28T19:03:26;98924.53;;;-1.63;85.23
74631;BME280;63138;55.082;38.804;2023-02-28T19:05:59;98913.16;;;-1.65;85.53
74631;BME280;63138;55.082;38.804;2023-02-28T19:08:26;98914.22;;;-1.68;85.81
74631;BME280;63138;55.082;38.804;2023-02-28T19:11:16;98918.47;;;-1.65;86.10
74631;BME280;63138;55.082;38.804;2023-02-28T19:13:43;98922.81;;;-1.64;86.00
74631;BME280;63138;55.082;38.804;2023-02-28T19:16:10;98925.59;;;-1.66;85.48
74631;BME280;63138;55.082;38.804;2023-02-28T19:18:40;98936.84;;;-1.62;85.22
74631;BME280;63138;55.082;38.804;2023-02-28T19:21:07;98947.88;;;-1.89;89.89
74631;BME280;63138;55.082;38.804;2023-02-28T19:23:33;98958.41;;;-2.22;94.17
74631;BME280;63138;55.082;38.804;2023-02-28T19:25:59;98960.94;;;-2.32;95.07
74631;BME280;63138;55.082;38.804;2023-02-28T19:28:28;98954.19;;;-2.36;93.60
74631;BME280;63138;55.082;38.804;2023-02-28T19:30:57;98945.81;;;-2.42;87.75
74631;BME280;63138;55.082;38.804;2023-02-28T19:33:23;98948.81;;;-2.47;80.26
74631;BME280;63138;55.082;38.804;2023-02-28T19:35:49;98951.97;;;-2.53;77.80
74631;BME280;63138;55.082;38.804;2023-02-28T19:38:15;98962.16;;;-2.82;77.77
74631;BME280;63138;55.082;38.804;2023-02-28T19:40:41;98960.25;;;-3.04;81.23
74631;BME280;63138;55.082;38.804;2023-02-28T19:43:07;98951.78;;;-3.10;78.74
74631;BME280;63138;55.082;38.804;2023-02-28T19:45:35;98951.91;;;-3.11;78.80
74631;BME280;63138;55.082;38.804;2023-02-28T19:48:02;98959.00;;;-3.12;77.62
74631;BME280;63138;55.082;38.804;2023-02-28T19:50:28;98960.72;;;-3.11;76.85
74631;BME280;63138;55.082;38.804;2023-02-28T19:52:55;98947.22;;;-3.08;74.96
74631;BME280;63138;55.082;38.804;2023-02-28T19:55:21;98951.31;;;-3.03;73.73
74631;BME280;63138;55.082;38.804;2023-02-28T19:57:49;98947.72;;;-3.02;72.90
74631;BME280;63138;55.082;38.804;2023-02-28T20:00:15;98941.44;;;-3.01;71.44
74631;BME280;63138;55.082;38.804;2023-02-28T20:02:41;98937.09;;;-3.02;70.61
74631;BME280;63138;55.082;38.804;2023-02-28T20:05:08;98947.13;;;-2.95;69.05
74631;BME280;63138;55.082;38.804;2023-02-28T20:07:35;98962.72;;;-2.90;67.76
74631;BME280;63138;55.082;38.804;2023-02-28T20:10:00;98946.78;;;-2.90;67.51
74631;BME280;63138;55.082;38.804;2023-02-28T20:12:26;98945.09;;;-2.91;67.45
74631;BME280;63138;55.082;38.804;2023-02-28T20:14:53;98945.09;;;-2.91;67.73
74631;BME280;63138;55.082;38.804;2023-02-28T20:17:22;98952.22;;;-2.92;67.54
74631;BME280;63138;55.082;38.804;2023-02-28T20:19:49;98949.56;;;-2.92;67.62
74631;BME280;63138;55.082;38.804;2023-02-28T20:22:16;98946.03;;;-2.92;67.93
74631;BME280;63138;55.082;38.804;2023-02-28T20:24:42;98950.63;;;-2.94;68.62
74631;BME280;63138;55.082;38.804;2023-02-28T20:27:08;98948.34;;;-2.99;69.25
74631;BME280;63138;55.082;38.804;2023-02-28T20:29:34;98959.81;;;-2.98;69.59
74631;BME280;63138;55.082;38.804;2023-02-28T20:32:05;98961.47;;;-2.97;69.91
74631;BME280;63138;55.082;38.804;2023-02-28T20:34:32;98958.09;;;-2.99;70.61
74631;BME280;63138;55.082;38.804;2023-02-28T20:36:59;98954.72;;;-3.01;70.68
74631;BME280;63138;55.082;38.804;2023-02-28T20:39:25;98961.34;;;-3.07;70.75
74631;BME280;63138;55.082;38.804;2023-02-28T20:41:51;98955.69;;;-3.02;71.53
74631;BME280;63138;55.082;38.804;2023-02-28T20:44:17;98944.19;;;-3.03;71.64
74631;BME280;63138;55.082;38.804;2023-02-28T20:46:42;98938.16;;;-3.05;71.44
74631;BME280;63138;55.082;38.804;2023-02-28T20:49:09;98945.28;;;-3.05;71.57
74631;BME280;63138;55.082;38.804;2023-02-28T20:51:36;98937.31;;;-3.05;71.78
74631;BME280;63138;55.082;38.804;2023-02-28T20:54:06;98955.19;;;-3.08;71.55
74631;BME280;63138;55.082;38.804;2023-02-28T20:56:33;98941.38;;;-3.13;71.41
74631;BME280;63138;55.082;38.804;2023-02-28T20:58:59;98936.59;;;-3.08;71.53
74631;BME280;63138;55.082;38.804;2023-02-28T21:01:27;98934.78;;;-3.07;71.79
74631;BME280;63138;55.082;38.804;2023-02-28T21:03:58;98943.69;;;-3.08;71.66
74631;BME280;63138;55.082;38.804;2023-02-28T21:06:27;98939.47;;;-3.11;71.44
74631;BME280;63138;55.082;38.804;2023-02-28T21:08:54;98931.72;;;-3.14;71.10
74631;BME280;63138;55.082;38.804;2023-02-28T21:13:48;98933.38;;;-3.24;71.27
74631;BME280;63138;55.082;38.804;2023-02-28T21:16:35;98932.88;;;-3.29;71.49
74631;BME280;63138;55.082;38.804;2023-02-28T21:19:01;98938.50;;;-3.34;71.37
74631;BME280;63138;55.082;38.804;2023-02-28T21:21:35;98939.81;;;-3.39;71.35
74631;BME280;63138;55.082;38.804;2023-02-28T21:24:11;98938.25;;;-3.42;71.10
74631;BME280;63138;55.082;38.804;2023-02-28T21:26:40;98945.34;;;-3.42;70.95
74631;BME280;63138;55.082;38.804;2023-02-28T21:29:06;98947.38;;;-3.46;70.76
74631;BME280;63138;55.082;38.804;2023-02-28T21:31:33;98938.25;;;-3.55;70.55
74631;BME280;63138;55.082;38.804;2023-02-28T21:34:01;98947.00;;;-3.53;70.79
74631;BME280;63138;55.082;38.804;2023-02-28T21:36:30;98940.44;;;-3.60;70.84
74631;BME280;63138;55.082;38.804;2023-02-28T21:39:04;98939.44;;;-3.59;70.26
74631;BME280;63138;55.082;38.804;2023-02-28T21:41:32;98938.41;;;-3.56;70.22
74631;BME280;63138;55.082;38.804;2023-02-28T21:43:59;98943.09;;;-3.60;70.07
74631;BME280;63138;55.082;38.804;2023-02-28T21:46:27;98946.91;;;-3.64;70.13
74631;BME280;63138;55.082;38.804;2023-02-28T21:48:53;98946.91;;;-3.64;69.34
74631;BME280;63138;55.082;38.804;2023-02-28T21:51:25;98950.63;;;-3.67;68.85
74631;BME280;63138;55.082;38.804;2023-02-28T21:54:11;98943.72;;;-3.69;68.28
74631;BME280;63138;55.082;38.804;2023-02-28T21:56:38;98946.84;;;-3.75;67.79
74631;BME280;63138;55.082;38.804;2023-02-28T21:59:03;98946.09;;;-3.77;66.63
74631;BME280;63138;55.082;38.804;2023-02-28T22:01:33;98923.00;;;-3.88;65.15
74631;BME280;63138;55.082;38.804;2023-02-28T22:04:00;98942.09;;;-3.83;63.40
74631;BME280;63138;55.082;38.804;2023-02-28T22:06:29;98919.66;;;-4.03;61.74
74631;BME280;63138;55.082;38.804;2023-02-28T22:08:58;98960.34;;;-3.91;60.19
74631;BME280;63138;55.082;38.804;2023-02-28T22:11:25;98960.59;;;-3.94;58.89
74631;BME280;63138;55.082;38.804;2023-02-28T22:13:53;98940.97;;;-4.05;58.41
74631;BME280;63138;55.082;38.804;2023-02-28T22:16:21;98956.53;;;-4.00;57.96
74631;BME280;63138;55.082;38.804;2023-02-28T22:18:48;98967.38;;;-4.03;57.94
74631;BME280;63138;55.082;38.804;2023-02-28T22:21:15;98964.84;;;-4.05;57.68
74631;BME280;63138;55.082;38.804;2023-02-28T22:23:41;98967.59;;;-4.06;57.15
74631;BME280;63138;55.082;38.804;2023-02-28T22:26:09;98967.78;;;-4.09;57.77
74631;BME280;63138;55.082;38.804;2023-02-28T22:28:36;98974.19;;;-4.12;57.64
74631;BME280;63138;55.082;38.804;2023-02-28T22:31:26;98967.50;;;-4.17;57.61
74631;BME280;63138;55.082;38.804;2023-02-28T22:33:55;98963.88;;;-4.16;57.85
74631;BME280;63138;55.082;38.804;2023-02-28T22:36:23;98971.28;;;-4.22;58.06
74631;BME280;63138;55.082;38.804;2023-02-28T22:38:49;98962.06;;;-4.29;58.36
74631;BME280;63138;55.082;38.804;2023-02-28T22:41:17;98969.41;;;-4.32;58.43
74631;BME280;63138;55.082;38.804;2023-02-28T22:43:44;98964.22;;;-4.34;58.09
74631;BME280;63138;55.082;38.804;2023-02-28T22:46:11;98973.13;;;-4.35;57.95
74631;BME280;63138;55.082;38.804;2023-02-28T22:48:39;98962.06;;;-4.42;58.22
74631;BME280;63138;55.082;38.804;2023-02-28T22:51:11;98959.66;;;-4.45;58.32
74631;BME280;63138;55.082;38.804;2023-02-28T22:53:40;98964.31;;;-4.48;58.04
74631;BME280;63138;55.082;38.804;2023-02-28T22:56:08;98964.72;;;-4.54;58.77
74631;BME280;63138;55.082;38.804;2023-02-28T22:58:34;98971.94;;;-4.56;58.40
74631;BME280;63138;55.082;38.804;2023-02-28T23:01:05;98970.56;;;-4.62;58.36
74631;BME280;63138;55.082;38.804;2023-02-28T23:03:32;98963.56;;;-4.63;57.82
74631;BME280;63138;55.082;38.804;2023-02-28T23:05:58;98981.47;;;-4.67;57.42
74631;BME280;63138;55.082;38.804;2023-02-28T23:08:24;98976.69;;;-4.74;57.61
74631;BME280;63138;55.082;38.804;2023-02-28T23:10:50;98987.38;;;-4.76;57.59
74631;BME280;63138;55.082;38.804;2023-02-28T23:13:18;98984.00;;;-4.78;57.34
74631;BME280;63138;55.082;38.804;2023-02-28T23:15:45;98981.53;;;-4.81;56.94
74631;BME280;63138;55.082;38.804;2023-02-28T23:18:12;98981.75;;;-4.84;56.90
74631;BME280;63138;55.082;38.804;2023-02-28T23:20:40;98984.50;;;-4.86;57.05
74631;BME280;63138;55.082;38.804;2023-02-28T23:23:06;98975.38;;;-4.94;56.36
74631;BME280;63138;55.082;38.804;2023-02-28T23:25:34;98990.09;;;-4.90;56.08
74631;BME280;63138;55.082;38.804;2023-02-28T23:28:03;98988.53;;;-4.93;56.81
74631;BME280;63138;55.082;38.804;2023-02-28T23:30:29;98986.63;;;-4.91;56.29
74631;BME280;63138;55.082;38.804;2023-02-28T23:32:57;98990.19;;;-4.92;56.15
74631;BME280;63138;55.082;38.804;2023-02-28T23:35:23;98996.56;;;-4.94;55.64
74631;BME280;63138;55.082;38.804;2023-02-28T23:37:49;98994.00;;;-4.96;56.01
74631;BME280;63138;55.082;38.804;2023-02-28T23:40:15;98996.00;;;-5.00;56.05
74631;BME280;63138;55.082;38.804;2023-02-28T23:42:41;98990.91;;;-5.03;56.35
74631;BME280;63138;55.082;38.804;2023-02-28T23:45:07;98995.00;;;-5.11;57.01
74631;BME280;63138;55.082;38.804;2023-02-28T23:47:34;98975.47;;;-5.36;57.03
74631;BME280;63138;55.082;38.804;2023-02-28T23:50:00;98994.13;;;-5.25;57.71
74631;BME280;63138;55.082;38.804;2023-02-28T23:52:28;98994.31;;;-5.28;58.19
74631;BME280;63138;55.082;38.804;2023-02-28T23:54:54;98996.22;;;-5.30;58.32
74631;BME280;63138;55.082;38.804;2023-02-28T23:57:20;99001.72;;;-5.33;58.36
74631;BME280;63138;55.082;38.804;2023-02-28T23:59:46;98990.59;;;-5.38;58.71
